Time;durP1;ratioP1;P1;durP2;ratioP2;P2;SDS_P1;SDS_P2;PMS_P1;PMS_P2;Temp;Humidity;BMP_temperature;BMP_pressure;BME280_temperature;BME280_humidity;BME280_pressure;Samples;Min_cycle;Max_cycle;Signal;HPM_P1;HPM_P2
2023/12/10 00:00:33;;;;;;;;;;;;;;;;;;5050614;28;19913;-80
2023/12/10 00:02:58;;;;;;;;;;;;;;;;;;5056186;28;19966;-80
2023/12/10 00:05:23;;;;;;;;;;;;;;;;;;5066181;28;19912;-80
2023/12/10 00:07:49;;;;;;;;;;;;;;;;;;5066619;28;19921;-80
2023/12/10 00:10:14;;;;;;;;;;;;;;;;;;5064069;28;19913;-80
2023/12/10 00:12:40;;;;;;;;;;;;;;;;;;5063765;28;20283;-80
2023/12/10 00:15:05;;;;;;;;;;;;;;;;;;5063582;28;19959;-80
2023/12/10 00:17:30;;;;;;;;;;;;;;;;;;5058989;28;20021;-80
2023/12/10 00:19:55;;;;;;;;;;;;;;;;;;5063051;28;20368;-80
2023/12/10 00:22:20;;;;;;;;;;;;;;;;;;5055744;28;20391;-80
2023/12/10 00:24:45;;;;;;;;;;;;;;;;;;5065752;28;20328;-80
2023/12/10 00:27:10;;;;;;;;;;;;;;;;;;5055893;28;19920;-80
2023/12/10 00:29:35;;;;;;;;;;;;;;;;;;5061266;28;20006;-80
2023/12/10 00:32:01;;;;;;;;;;;;;;;;;;5066614;28;19912;-80
2023/12/10 00:34:26;;;;;;;;;;;;;;;;;;5068477;28;19974;-80
2023/12/10 00:36:51;;;;;;;;;;;;;;;;;;5063390;28;19927;-80
2023/12/10 00:39:16;;;;;;;;;;;;;;;;;;5063973;28;19924;-80
2023/12/10 00:41:41;;;;;;;;;;;;;;;;;;5062769;28;19913;-80
2023/12/10 00:44:06;;;;;;;;;;;;;;;;;;5062251;28;19912;-80
2023/12/10 00:46:31;;;;;;;;;;;;;;;;;;5056612;28;19916;-80
2023/12/10 00:48:57;;;;;;;;;;;;;;;;;;5067974;28;20015;-80
2023/12/10 00:51:22;;;;;;;;;;;;;;;;;;5061986;28;19971;-80
2023/12/10 00:53:47;;;;;;;;;;;;;;;;;;5060289;28;19944;-80
2023/12/10 00:56:12;;;;;;;;;;;;;;;;;;5066066;28;19958;-80
2023/12/10 00:58:37;;;;;;;;;;;;;;;;;;5058724;28;19921;-80
2023/12/10 01:01:02;;;;;;;;;;;;;;;;;;5063833;28;19917;-80
2023/12/10 01:03:27;;;;;;;;;;;;;;;;;;5063595;28;19919;-80
2023/12/10 01:05:52;;;;;;;;;;;;;;;;;;5065065;28;20002;-80
2023/12/10 01:08:18;;;;;;;;;;;;;;;;;;5055376;28;19968;-80
2023/12/10 01:10:43;;;;;;;;;;;;;;;;;;5065254;28;20045;-80
2023/12/10 01:13:08;;;;;;;;;;;;;;;;;;5063751;28;20341;-81
2023/12/10 01:15:33;;;;;;;;;;;;;;;;;;5059710;28;20729;-80
2023/12/10 01:18:01;;;;;;;;;;;;;;;;;;5060013;28;20345;-80
2023/12/10 01:20:26;;;;;;;;;;;;;;;;;;5062167;28;19939;-81
2023/12/10 01:22:52;;;;;;;;;;;;;;;;;;5065312;28;19912;-81
2023/12/10 01:25:17;;;;;;;;;;;;;;;;;;5064720;28;20020;-80
2023/12/10 01:27:42;;;;;;;;;;;;;;;;;;5062655;28;20023;-80
2023/12/10 01:30:07;;;;;;;;;;;;;;;;;;5061555;28;19948;-80
2023/12/10 01:32:32;;;;;;;;;;;;;;;;;;5060774;28;19936;-81
2023/12/10 01:34:57;;;;;;;;;;;;;;;;;;5063768;28;19913;-80
2023/12/10 01:37:23;;;;;;;;;;;;;;;;;;5063221;28;20019;-81
2023/12/10 01:39:48;;;;;;;;;;;;;;;;;;5061195;28;20012;-80
2023/12/10 01:42:13;;;;;;;;;;;;;;;;;;5065072;28;19962;-80
2023/12/10 01:44:38;;;;;;;;;;;;;;;;;;5058088;28;19919;-80
2023/12/10 01:47:03;;;;;;;;;;;;;;;;;;5062973;28;19917;-80
2023/12/10 01:49:28;;;;;;;;;;;;;;;;;;5065595;28;19935;-81
2023/12/10 01:51:54;;;;;;;;;;;;;;;;;;5058260;28;19916;-81
2023/12/10 01:54:19;;;;;;;;;;;;;;;;;;5060535;28;19971;-81
2023/12/10 01:56:44;;;;;;;;;;;;;;;;;;5061160;28;19917;-81
2023/12/10 01:59:09;;;;;;;;;;;;;;;;;;5068600;28;19917;-81
2023/12/10 02:01:35;;;;;;;;;;;;;;;;;;5064250;28;19923;-81
2023/12/10 02:04:00;;;;;;;;;;;;;;;;;;5063374;28;19912;-81
2023/12/10 02:06:25;;;;;;;;;;;;;;;;;;5058779;28;19931;-81
2023/12/10 02:08:50;;;;;;;;;;;;;;;;;;5063799;28;20004;-82
2023/12/10 02:11:15;;;;;;;;;;;;;;;;;;5062853;28;20352;-82
2023/12/10 02:13:40;;;;;;;;;;;;;;;;;;5064375;28;19973;-82
2023/12/10 02:16:06;;;;;;;;;;;;;;;;;;5064204;28;20368;-82
2023/12/10 02:18:31;;;;;;;;;;;;;;;;;;5054924;28;20361;-82
2023/12/10 02:20:56;;;;;;;;;;;;;;;;;;5066566;28;19913;-82
2023/12/10 02:23:21;;;;;;;;;;;;;;;;;;5058565;28;19909;-82
2023/12/10 02:25:46;;;;;;;;;;;;;;;;;;5062586;28;19912;-82
2023/12/10 02:28:11;;;;;;;;;;;;;;;;;;5063270;28;19919;-82
2023/12/10 02:30:36;;;;;;;;;;;;;;;;;;5061331;28;19908;-81
2023/12/10 02:33:01;;;;;;;;;;;;;;;;;;5059784;28;19999;-82
2023/12/10 02:35:26;;;;;;;;;;;;;;;;;;5067103;28;20368;-81
2023/12/10 02:37:52;;;;;;;;;;;;;;;;;;5061528;28;20407;-82
2023/12/10 02:40:17;;;;;;;;;;;;;;;;;;5056096;28;19921;-82
2023/12/10 02:42:42;;;;;;;;;;;;;;;;;;5065770;28;19944;-82
2023/12/10 02:45:07;;;;;;;;;;;;;;;;;;5063350;28;19990;-82
2023/12/10 02:47:32;;;;;;;;;;;;;;;;;;5066446;28;19908;-81
2023/12/10 02:49:57;;;;;;;;;;;;;;;;;;5064982;28;19973;-81
2023/12/10 02:52:23;;;;;;;;;;;;;;;;;;5055473;28;19912;-81
2023/12/10 02:54:48;;;;;;;;;;;;;;;;;;5063823;28;20388;-81
2023/12/10 02:57:13;;;;;;;;;;;;;;;;;;5053430;28;19916;-82
2023/12/10 02:59:38;;;;;;;;;;;;;;;;;;5058528;28;19916;-81
2023/12/10 03:02:03;;;;;;;;;;;;;;;;;;5054838;28;19917;-81
2023/12/10 03:04:28;;;;;;;;;;;;;;;;;;5054885;28;19920;-81
2023/12/10 03:06:53;;;;;;;;;;;;;;;;;;5063687;28;19927;-81
2023/12/10 03:09:18;;;;;;;;;;;;;;;;;;5065528;28;19912;-80
2023/12/10 03:11:43;;;;;;;;;;;;;;;;;;5061299;28;19919;-81
2023/12/10 03:14:09;;;;;;;;;;;;;;;;;;5059931;28;19921;-81
2023/12/10 03:16:34;;;;;;;;;;;;;;;;;;5060442;28;19912;-81
2023/12/10 03:18:59;;;;;;;;;;;;;;;;;;5060851;28;19916;-81
2023/12/10 03:21:24;;;;;;;;;;;;;;;;;;5060154;28;19913;-81
2023/12/10 03:23:49;;;;;;;;;;;;;;;;;;5062258;28;19921;-81
2023/12/10 03:26:14;;;;;;;;;;;;;;;;;;5052830;28;19969;-81
2023/12/10 03:28:39;;;;;;;;;;;;;;;;;;5061901;28;20403;-81
2023/12/10 03:31:04;;;;;;;;;;;;;;;;;;5064011;28;19917;-81
2023/12/10 03:33:31;;;;;;;;;;;;;;;;;;5061114;28;19913;-81
2023/12/10 03:35:56;;;;;;;;;;;;;;;;;;5066502;28;19913;-80
2023/12/10 03:38:22;;;;;;;;;;;;;;;;;;5061482;28;19920;-81
2023/12/10 03:40:47;;;;;;;;;;;;;;;;;;5067007;28;19919;-80
2023/12/10 03:43:12;;;;;;;;;;;;;;;;;;5060099;28;20324;-80
2023/12/10 03:45:37;;;;;;;;;;;;;;;;;;5061936;28;20268;-80
2023/12/10 03:48:02;;;;;;;;;;;;;;;;;;5061248;28;20288;-80
2023/12/10 03:50:27;;;;;;;;;;;;;;;;;;5070268;28;20287;-80
2023/12/10 03:52:52;;;;;;;;;;;;;;;;;;5065429;28;19913;-80
2023/12/10 03:55:18;;;;;;;;;;;;;;;;;;5067750;28;19913;-80
2023/12/10 03:57:44;;;;;;;;;;;;;;;;;;5065412;28;19920;-80
2023/12/10 04:00:09;;;;;;;;;;;;;;;;;;5062707;28;19917;-81
2023/12/10 04:02:34;;;;;;;;;;;;;;;;;;5063336;28;20000;-80
2023/12/10 04:05:00;;;;;;;;;;;;;;;;;;5067256;28;19913;-81
2023/12/10 04:07:25;;;;;;;;;;;;;;;;;;5058252;28;19924;-80
2023/12/10 04:09:50;;;;;;;;;;;;;;;;;;5049173;28;20338;-80
2023/12/10 04:12:15;;;;;;;;;;;;;;;;;;5062689;28;19923;-81
2023/12/10 04:14:40;;;;;;;;;;;;;;;;;;5059808;28;19912;-80
2023/12/10 04:17:06;;;;;;;;;;;;;;;;;;5069627;28;19923;-81
2023/12/10 04:19:31;;;;;;;;;;;;;;;;;;5065391;28;19912;-81
2023/12/10 04:21:56;;;;;;;;;;;;;;;;;;5054599;28;19913;-81
2023/12/10 04:24:21;;;;;;;;;;;;;;;;;;5058968;28;19964;-80
2023/12/10 04:26:47;;;;;;;;;;;;;;;;;;5056943;28;19952;-80
2023/12/10 04:29:12;;;;;;;;;;;;;;;;;;5061536;28;19963;-80
2023/12/10 04:31:37;;;;;;;;;;;;;;;;;;5059772;28;19912;-80
2023/12/10 04:34:02;;;;;;;;;;;;;;;;;;5061848;28;19925;-80
2023/12/10 04:36:27;;;;;;;;;;;;;;;;;;5064567;28;19966;-80
2023/12/10 04:38:52;;;;;;;;;;;;;;;;;;5066049;28;19920;-80
2023/12/10 04:41:17;;;;;;;;;;;;;;;;;;5066630;28;19912;-80
2023/12/10 04:43:42;;;;;;;;;;;;;;;;;;5063713;28;20369;-80
2023/12/10 04:46:07;;;;;;;;;;;;;;;;;;5068971;28;19913;-80
2023/12/10 04:48:33;;;;;;;;;;;;;;;;;;5055558;28;19944;-80
2023/12/10 04:50:58;;;;;;;;;;;;;;;;;;5063334;28;19952;-80
2023/12/10 04:53:23;;;;;;;;;;;;;;;;;;5062761;28;19920;-80
2023/12/10 04:55:48;;;;;;;;;;;;;;;;;;5067209;28;19913;-79
2023/12/10 04:58:13;;;;;;;;;;;;;;;;;;5060013;28;19920;-80
2023/12/10 05:00:38;;;;;;;;;;;;;;;;;;5064110;28;20000;-80
2023/12/10 05:03:03;;;;;;;;;;;;;;;;;;5056889;28;19970;-79
2023/12/10 05:05:28;;;;;;;;;;;;;;;;;;5066469;28;19920;-79
2023/12/10 05:07:53;;;;;;;;;;;;;;;;;;5059472;28;19921;-80
2023/12/10 05:10:19;;;;;;;;;;;;;;;;;;5068926;28;19917;-79
2023/12/10 05:12:44;;;;;;;;;;;;;;;;;;5061409;28;20007;-80
2023/12/10 05:15:09;;;;;;;;;;;;;;;;;;5069050;28;19916;-79
2023/12/10 05:17:34;;;;;;;;;;;;;;;;;;5062440;28;20023;-79
2023/12/10 05:19:59;;;;;;;;;;;;;;;;;;5067236;28;19912;-80
2023/12/10 05:22:24;;;;;;;;;;;;;;;;;;5062946;28;19916;-80
2023/12/10 05:24:49;;;;;;;;;;;;;;;;;;5065417;28;19919;-80
2023/12/10 05:27:15;;;;;;;;;;;;;;;;;;5065085;28;20394;-80
2023/12/10 05:29:40;;;;;;;;;;;;;;;;;;5056180;28;19959;-80
2023/12/10 05:32:05;;;;;;;;;;;;;;;;;;5064372;28;19917;-80
2023/12/10 05:34:30;;;;;;;;;;;;;;;;;;5056720;28;19920;-80
2023/12/10 05:36:55;;;;;;;;;;;;;;;;;;5062611;28;19917;-80
2023/12/10 05:39:20;;;;;;;;;;;;;;;;;;5063476;28;19924;-80
2023/12/10 05:41:45;;;;;;;;;;;;;;;;;;5057710;28;19917;-80
2023/12/10 05:44:11;;;;;;;;;;;;;;;;;;5051377;28;19959;-80
2023/12/10 05:46:36;;;;;;;;;;;;;;;;;;5060668;28;20376;-80
2023/12/10 05:49:01;;;;;;;;;;;;;;;;;;5064750;28;20017;-80
2023/12/10 05:51:26;;;;;;;;;;;;;;;;;;5062819;28;19935;-80
2023/12/10 05:53:51;;;;;;;;;;;;;;;;;;5059145;28;19913;-80
2023/12/10 05:56:17;;;;;;;;;;;;;;;;;;5068046;28;20007;-80
2023/12/10 05:58:42;;;;;;;;;;;;;;;;;;5061400;28;19927;-80
2023/12/10 06:01:07;;;;;;;;;;;;;;;;;;5063550;28;19986;-80
2023/12/10 06:03:32;;;;;;;;;;;;;;;;;;5061821;28;19956;-80
2023/12/10 06:05:57;;;;;;;;;;;;;;;;;;5059661;28;19934;-80
2023/12/10 06:08:22;;;;;;;;;;;;;;;;;;5057638;28;19921;-80
2023/12/10 06:10:47;;;;;;;;;;;;;;;;;;5062949;28;19912;-80
2023/12/10 06:13:16;;;;;;;;;;;;;;;;;;5060049;28;20015;-80
2023/12/10 06:15:41;;;;;;;;;;;;;;;;;;5065110;28;19913;-80
2023/12/10 06:18:06;;;;;;;;;;;;;;;;;;5060997;28;19927;-80
2023/12/10 06:20:31;;;;;;;;;;;;;;;;;;5061470;28;19913;-80
2023/12/10 06:22:57;;;;;;;;;;;;;;;;;;5059977;28;20325;-80
2023/12/10 06:25:22;;;;;;;;;;;;;;;;;;5066536;28;20385;-80
2023/12/10 06:27:47;;;;;;;;;;;;;;;;;;5060882;28;19958;-80
2023/12/10 06:30:12;;;;;;;;;;;;;;;;;;5059298;28;20317;-80
2023/12/10 06:32:37;;;;;;;;;;;;;;;;;;5064307;28;19913;-80
2023/12/10 06:35:02;;;;;;;;;;;;;;;;;;5064890;28;19970;-80
2023/12/10 06:37:28;;;;;;;;;;;;;;;;;;5055385;28;19970;-79
2023/12/10 06:39:54;;;;;;;;;;;;;;;;;;5059220;28;20395;-80
2023/12/10 06:42:19;;;;;;;;;;;;;;;;;;5063492;28;19912;-80
2023/12/10 06:44:44;;;;;;;;;;;;;;;;;;5063881;28;19917;-79
2023/12/10 06:47:09;;;;;;;;;;;;;;;;;;5062269;28;20330;-80
2023/12/10 06:49:34;;;;;;;;;;;;;;;;;;5063868;28;19912;-80
2023/12/10 06:52:00;;;;;;;;;;;;;;;;;;5067388;28;19919;-80
2023/12/10 06:54:25;;;;;;;;;;;;;;;;;;5062636;28;19928;-80
2023/12/10 06:56:50;;;;;;;;;;;;;;;;;;5062356;28;19917;-80
2023/12/10 06:59:15;;;;;;;;;;;;;;;;;;5058972;28;19927;-80
2023/12/10 07:01:41;;;;;;;;;;;;;;;;;;5064673;28;19919;-80
2023/12/10 07:04:06;;;;;;;;;;;;;;;;;;5062198;28;20011;-80
2023/12/10 07:06:31;;;;;;;;;;;;;;;;;;5064834;28;20442;-80
2023/12/10 07:08:56;;;;;;;;;;;;;;;;;;5058293;28;19913;-80
2023/12/10 07:11:21;;;;;;;;;;;;;;;;;;5063724;28;19969;-80
2023/12/10 07:13:48;;;;;;;;;;;;;;;;;;5063860;28;19916;-80
2023/12/10 07:16:13;;;;;;;;;;;;;;;;;;5062465;28;19913;-80
2023/12/10 07:18:38;;;;;;;;;;;;;;;;;;5063366;28;20019;-80
2023/12/10 07:21:03;;;;;;;;;;;;;;;;;;5062686;28;20008;-80
2023/12/10 07:23:29;;;;;;;;;;;;;;;;;;5055268;28;19960;-80
2023/12/10 07:25:54;;;;;;;;;;;;;;;;;;5063344;28;20474;-80
2023/12/10 07:28:19;;;;;;;;;;;;;;;;;;5064885;28;19913;-79
2023/12/10 07:30:44;;;;;;;;;;;;;;;;;;5070143;28;19998;-80
2023/12/10 07:33:10;;;;;;;;;;;;;;;;;;5064311;28;20019;-80
2023/12/10 07:35:35;;;;;;;;;;;;;;;;;;5072025;28;19916;-80
2023/12/10 07:38:01;;;;;;;;;;;;;;;;;;5056983;28;19966;-79
2023/12/10 07:40:26;;;;;;;;;;;;;;;;;;5062580;28;19913;-80
2023/12/10 07:42:51;;;;;;;;;;;;;;;;;;5068301;28;19924;-80
2023/12/10 07:45:16;;;;;;;;;;;;;;;;;;5062747;28;20283;-79
2023/12/10 07:47:41;;;;;;;;;;;;;;;;;;5063452;28;20004;-80
2023/12/10 07:50:06;;;;;;;;;;;;;;;;;;5057839;28;19952;-80
2023/12/10 07:52:32;;;;;;;;;;;;;;;;;;5057079;28;19920;-80
2023/12/10 07:54:57;;;;;;;;;;;;;;;;;;5067494;28;19912;-80
2023/12/10 07:57:22;;;;;;;;;;;;;;;;;;5065810;28;20363;-80
2023/12/10 07:59:47;;;;;;;;;;;;;;;;;;5065381;28;19912;-80
2023/12/10 08:02:12;;;;;;;;;;;;;;;;;;5050230;28;20376;-80
2023/12/10 08:04:37;;;;;;;;;;;;;;;;;;5059041;28;20364;-80
2023/12/10 08:07:02;;;;;;;;;;;;;;;;;;5067449;28;19931;-80
2023/12/10 08:09:29;;;;;;;;;;;;;;;;;;5064713;28;19913;-80
2023/12/10 08:11:54;;;;;;;;;;;;;;;;;;5057531;28;19967;-80
2023/12/10 08:14:19;;;;;;;;;;;;;;;;;;5065119;28;20315;-80
2023/12/10 08:16:45;;;;;;;;;;;;;;;;;;5062988;28;19916;-80
2023/12/10 08:19:10;;;;;;;;;;;;;;;;;;5064196;28;19954;-80
2023/12/10 08:21:35;;;;;;;;;;;;;;;;;;5064786;28;20383;-80
2023/12/10 08:24:00;;;;;;;;;;;;;;;;;;5066524;28;19912;-80
2023/12/10 08:26:25;;;;;;;;;;;;;;;;;;5063252;28;19963;-79
2023/12/10 08:28:50;;;;;;;;;;;;;;;;;;5060690;28;19947;-80
2023/12/10 08:31:15;;;;;;;;;;;;;;;;;;5065631;28;19967;-80
2023/12/10 08:33:44;;;;;;;;;;;;;;;;;;5055818;28;19913;-80
2023/12/10 08:36:09;;;;;;;;;;;;;;;;;;5065219;28;19917;-80
2023/12/10 08:38:34;;;;;;;;;;;;;;;;;;5058074;28;20338;-80
2023/12/10 08:40:59;;;;;;;;;;;;;;;;;;5063009;28;19912;-80
2023/12/10 08:43:24;;;;;;;;;;;;;;;;;;5062295;28;19920;-80
2023/12/10 08:45:49;;;;;;;;;;;;;;;;;;5067783;28;19913;-80
2023/12/10 08:48:15;;;;;;;;;;;;;;;;;;5051272;28;19923;-80
2023/12/10 08:50:40;;;;;;;;;;;;;;;;;;5070243;28;19912;-80
2023/12/10 08:53:05;;;;;;;;;;;;;;;;;;5062625;28;19924;-79
2023/12/10 08:55:30;;;;;;;;;;;;;;;;;;5061053;28;19913;-79
2023/12/10 08:57:55;;;;;;;;;;;;;;;;;;5059747;28;19924;-80
2023/12/10 09:00:20;;;;;;;;;;;;;;;;;;5059855;28;19920;-79
2023/12/10 09:02:45;;;;;;;;;;;;;;;;;;5052891;28;19913;-79
2023/12/10 09:05:11;;;;;;;;;;;;;;;;;;5068636;28;19920;-79
2023/12/10 09:07:36;;;;;;;;;;;;;;;;;;5054505;28;20375;-80
2023/12/10 09:10:02;;;;;;;;;;;;;;;;;;5068476;28;19913;-80
2023/12/10 09:12:27;;;;;;;;;;;;;;;;;;5062861;28;19931;-80
2023/12/10 09:14:53;;;;;;;;;;;;;;;;;;5060772;28;20260;-81
2023/12/10 09:17:18;;;;;;;;;;;;;;;;;;5061337;28;20019;-81
2023/12/10 09:19:43;;;;;;;;;;;;;;;;;;5053555;28;19921;-81
2023/12/10 09:22:08;;;;;;;;;;;;;;;;;;5058452;28;19913;-81
2023/12/10 09:24:33;;;;;;;;;;;;;;;;;;5060156;28;19916;-81
2023/12/10 09:27:00;;;;;;;;;;;;;;;;;;5059427;28;19912;-81
2023/12/10 09:29:25;;;;;;;;;;;;;;;;;;5056373;28;19917;-81
2023/12/10 09:31:50;;;;;;;;;;;;;;;;;;5062248;28;19912;-82
2023/12/10 09:34:15;;;;;;;;;;;;;;;;;;5063055;28;19952;-81
2023/12/10 09:36:40;;;;;;;;;;;;;;;;;;5056073;28;19913;-81
2023/12/10 09:39:05;;;;;;;;;;;;;;;;;;5061100;28;19928;-81
2023/12/10 09:41:30;;;;;;;;;;;;;;;;;;5067232;22;19967;-82
2023/12/10 09:43:55;;;;;;;;;;;;;;;;;;5048455;28;19916;-81
2023/12/10 09:46:21;;;;;;;;;;;;;;;;;;5045907;28;19913;-81
2023/12/10 09:48:46;;;;;;;;;;;;;;;;;;5053626;28;19924;-82
2023/12/10 09:51:12;;;;;;;;;;;;;;;;;;5046945;28;19913;-81
2023/12/10 09:53:37;;;;;;;;;;;;;;;;;;5049375;28;20007;-82
2023/12/10 09:56:02;;;;;;;;;;;;;;;;;;5043957;28;19991;-82
2023/12/10 09:58:28;;;;;;;;;;;;;;;;;;5050694;28;20327;-82
2023/12/10 10:00:53;;;;;;;;;;;;;;;;;;5048485;28;19913;-81
2023/12/10 10:03:20;;;;;;;;;;;;;;;;;;5052365;28;19943;-82
2023/12/10 10:05:45;;;;;;;;;;;;;;;;;;5042688;28;19912;-82
2023/12/10 10:08:10;;;;;;;;;;;;;;;;;;5043049;28;19958;-82
2023/12/10 10:10:35;;;;;;;;;;;;;;;;;;5049193;28;19917;-82
2023/12/10 10:13:00;;;;;;;;;;;;;;;;;;5051110;28;19923;-78
2023/12/10 10:15:27;;;;;;;;;;;;;;;;;;5048024;28;19917;-82
2023/12/10 10:17:52;;;;;;;;;;;;;;;;;;5045410;28;20322;-81
2023/12/10 10:20:18;;;;;;;;;;;;;;;;;;5047406;28;19914;-81
2023/12/10 10:22:43;;;;;;;;;;;;;;;;;;5048359;28;19992;-81
2023/12/10 10:25:08;;;;;;;;;;;;;;;;;;5052784;28;19919;-81
2023/12/10 10:27:34;;;;;;;;;;;;;;;;;;5046322;28;19917;-81
2023/12/10 10:29:59;;;;;;;;;;;;;;;;;;5051575;28;19913;-81
2023/12/10 10:32:24;;;;;;;;;;;;;;;;;;5044308;28;19917;-81
2023/12/10 10:34:49;;;;;;;;;;;;;;;;;;5050943;28;19912;-81
2023/12/10 10:37:17;;;;;;;;;;;;;;;;;;5051690;28;20372;-82
2023/12/10 10:39:42;;;;;;;;;;;;;;;;;;5051222;28;20322;-81
2023/12/10 10:42:09;;;;;;;;;;;;;;;;;;5046926;28;19921;-82
2023/12/10 10:44:34;;;;;;;;;;;;;;;;;;5059400;28;19913;-82
2023/12/10 10:46:59;;;;;;;;;;;;;;;;;;5050837;28;19920;-82
2023/12/10 10:49:24;;;;;;;;;;;;;;;;;;5049645;28;20284;-82
2023/12/10 10:51:50;;;;;;;;;;;;;;;;;;5046765;28;20427;-82
2023/12/10 10:54:15;;;;;;;;;;;;;;;;;;5056152;28;20004;-82
2023/12/10 10:56:40;;;;;;;;;;;;;;;;;;5046645;28;20387;-81
2023/12/10 10:59:06;;;;;;;;;;;;;;;;;;5053795;28;19963;-81
2023/12/10 11:01:31;;;;;;;;;;;;;;;;;;5053071;28;19940;-82
2023/12/10 11:03:56;;;;;;;;;;;;;;;;;;5056345;28;19916;-82
2023/12/10 11:06:21;;;;;;;;;;;;;;;;;;5052823;28;19913;-82
2023/12/10 11:08:46;;;;;;;;;;;;;;;;;;5062228;28;19939;-82
2023/12/10 11:11:12;;;;;;;;;;;;;;;;;;5051401;28;19913;-82
2023/12/10 11:13:38;;;;;;;;;;;;;;;;;;5055430;28;19913;-82
2023/12/10 11:16:03;;;;;;;;;;;;;;;;;;5051596;28;19928;-82
2023/12/10 11:18:28;;;;;;;;;;;;;;;;;;5053908;28;19921;-82
2023/12/10 11:20:53;;;;;;;;;;;;;;;;;;5051445;28;19920;-82
2023/12/10 11:23:19;;;;;;;;;;;;;;;;;;5054567;28;19913;-82
2023/12/10 11:25:44;;;;;;;;;;;;;;;;;;5052088;28;19913;-82
2023/12/10 11:28:12;;;;;;;;;;;;;;;;;;5054676;28;19913;-82
2023/12/10 11:30:37;;;;;;;;;;;;;;;;;;5052392;28;19913;-82
2023/12/10 11:33:03;;;;;;;;;;;;;;;;;;5052820;28;19924;-83
2023/12/10 11:35:28;;;;;;;;;;;;;;;;;;5055126;28;19963;-82
2023/12/10 11:37:53;;;;;;;;;;;;;;;;;;5049481;28;20082;-82
2023/12/10 11:40:18;;;;;;;;;;;;;;;;;;5056272;28;19966;-82
2023/12/10 11:42:43;;;;;;;;;;;;;;;;;;5048540;28;19928;-82
2023/12/10 11:45:08;;;;;;;;;;;;;;;;;;5061429;28;20323;-82
2023/12/10 11:47:33;;;;;;;;;;;;;;;;;;5051282;28;19919;-82
2023/12/10 11:49:58;;;;;;;;;;;;;;;;;;5057874;28;20008;-81
2023/12/10 11:52:24;;;;;;;;;;;;;;;;;;5044949;28;20003;-81
2023/12/10 11:54:49;;;;;;;;;;;;;;;;;;5049594;28;19952;-81
2023/12/10 11:57:14;;;;;;;;;;;;;;;;;;5075892;22;19937;-81
2023/12/10 11:59:39;;;;;;;;;;;;;;;;;;5074549;28;19919;-82
2023/12/10 12:02:05;;;;;;;;;;;;;;;;;;5074244;28;19912;-81
2023/12/10 12:04:31;;;;;;;;;;;;;;;;;;5075179;28;19912;-81
2023/12/10 12:06:56;;;;;;;;;;;;;;;;;;5075319;28;19920;-81
2023/12/10 12:09:21;;;;;;;;;;;;;;;;;;5075206;28;19913;-81
2023/12/10 12:11:46;;;;;;;;;;;;;;;;;;5074936;28;20007;-82
2023/12/10 12:14:11;;;;;;;;;;;;;;;;;;5074429;28;19991;-82
2023/12/10 12:16:36;;;;;;;;;;;;;;;;;;5075474;28;19919;-82
2023/12/10 12:19:01;;;;;;;;;;;;;;;;;;5072414;28;19927;-82
2023/12/10 12:21:26;;;;;;;;;;;;;;;;;;5072331;28;19920;-82
2023/12/10 12:23:51;;;;;;;;;;;;;;;;;;5075352;28;19923;-83
2023/12/10 12:26:17;;;;;;;;;;;;;;;;;;5078630;28;19956;-83
2023/12/10 12:28:42;;;;;;;;;;;;;;;;;;5074297;28;19920;-82
2023/12/10 12:31:07;;;;;;;;;;;;;;;;;;5072362;28;20007;-83
2023/12/10 12:33:32;;;;;;;;;;;;;;;;;;5075202;28;19918;-83
2023/12/10 12:35:57;;;;;;;;;;;;;;;;;;5069455;28;20007;-83
2023/12/10 12:38:22;;;;;;;;;;;;;;;;;;5073502;28;20015;-83
2023/12/10 12:40:47;;;;;;;;;;;;;;;;;;5073785;28;20336;-83
2023/12/10 12:43:13;;;;;;;;;;;;;;;;;;5074525;28;20365;-83
2023/12/10 12:45:38;;;;;;;;;;;;;;;;;;5070018;28;19966;-83
2023/12/10 12:48:03;;;;;;;;;;;;;;;;;;5072210;28;19919;-82
2023/12/10 12:50:29;;;;;;;;;;;;;;;;;;5073444;28;19912;-82
2023/12/10 12:52:54;;;;;;;;;;;;;;;;;;5073779;28;20260;-82
2023/12/10 12:55:21;;;;;;;;;;;;;;;;;;5073443;28;19912;-82
2023/12/10 12:57:46;;;;;;;;;;;;;;;;;;5072145;28;19924;-82
2023/12/10 13:00:14;;;;;;;;;;;;;;;;;;5073305;28;19920;-81
2023/12/10 13:02:39;;;;;;;;;;;;;;;;;;5073694;28;20011;-83
2023/12/10 13:05:05;;;;;;;;;;;;;;;;;;5069886;28;20000;-83
2023/12/10 13:07:30;;;;;;;;;;;;;;;;;;5073617;28;20026;-81
2023/12/10 13:09:55;;;;;;;;;;;;;;;;;;5072620;28;19913;-81
2023/12/10 13:12:21;;;;;;;;;;;;;;;;;;5074099;28;20057;-81
2023/12/10 13:14:46;;;;;;;;;;;;;;;;;;5070521;28;20339;-81
2023/12/10 13:17:11;;;;;;;;;;;;;;;;;;5070437;28;20437;-81
2023/12/10 13:19:36;;;;;;;;;;;;;;;;;;5073711;28;19913;-81
2023/12/10 13:22:02;;;;;;;;;;;;;;;;;;5073324;28;19913;-80
2023/12/10 13:24:27;;;;;;;;;;;;;;;;;;5073175;28;20015;-83
2023/12/10 13:26:52;;;;;;;;;;;;;;;;;;5070189;28;19916;-83
2023/12/10 13:29:17;;;;;;;;;;;;;;;;;;5073513;28;19917;-82
2023/12/10 13:31:42;;;;;;;;;;;;;;;;;;5072910;28;19973;-83
2023/12/10 13:34:07;;;;;;;;;;;;;;;;;;5069709;28;20368;-82
2023/12/10 13:36:33;;;;;;;;;;;;;;;;;;5073140;28;19912;-81
2023/12/10 13:38:58;;;;;;;;;;;;;;;;;;5072890;28;20409;-81
2023/12/10 13:41:23;;;;;;;;;;;;;;;;;;5073443;28;19913;-81
2023/12/10 13:43:48;;;;;;;;;;;;;;;;;;5073320;28;20070;-81
2023/12/10 13:46:13;;;;;;;;;;;;;;;;;;5072572;28;19920;-81
2023/12/10 13:48:38;;;;;;;;;;;;;;;;;;5072812;28;19960;-82
2023/12/10 13:51:03;;;;;;;;;;;;;;;;;;5073088;28;19913;-82
2023/12/10 13:53:28;;;;;;;;;;;;;;;;;;5072344;28;20001;-82
2023/12/10 13:55:54;;;;;;;;;;;;;;;;;;5067927;28;19919;-82
2023/12/10 13:58:19;;;;;;;;;;;;;;;;;;5060175;28;20272;-82
2023/12/10 14:00:44;;;;;;;;;;;;;;;;;;5060604;28;20482;-82
2023/12/10 14:03:09;;;;;;;;;;;;;;;;;;5062243;28;19936;-81
2023/12/10 14:05:34;;;;;;;;;;;;;;;;;;5060166;28;20361;-82
2023/12/10 14:07:59;;;;;;;;;;;;;;;;;;5059450;28;19952;-82
2023/12/10 14:10:24;;;;;;;;;;;;;;;;;;5065326;28;19952;-82
2023/12/10 14:12:49;;;;;;;;;;;;;;;;;;5063329;28;19967;-81
2023/12/10 14:15:15;;;;;;;;;;;;;;;;;;5059704;28;19960;-81
2023/12/10 14:17:40;;;;;;;;;;;;;;;;;;5068114;28;19975;-82
2023/12/10 14:20:06;;;;;;;;;;;;;;;;;;5059404;28;20474;-81
2023/12/10 14:22:31;;;;;;;;;;;;;;;;;;5065214;28;19920;-82
2023/12/10 14:24:56;;;;;;;;;;;;;;;;;;5053537;28;19939;-81
2023/12/10 14:27:22;;;;;;;;;;;;;;;;;;5059730;28;19970;-82
2023/12/10 14:29:47;;;;;;;;;;;;;;;;;;5066762;28;20387;-81
2023/12/10 14:32:12;;;;;;;;;;;;;;;;;;5070375;28;20420;-81
2023/12/10 14:34:38;;;;;;;;;;;;;;;;;;5070002;28;20458;-82
2023/12/10 14:37:03;;;;;;;;;;;;;;;;;;5072136;28;19985;-81
2023/12/10 14:39:34;;;;;;;;;;;;;;;;;;5072671;28;19908;-82
2023/12/10 14:41:59;;;;;;;;;;;;;;;;;;5071318;28;19912;-82
2023/12/10 14:44:24;;;;;;;;;;;;;;;;;;5072534;28;20356;-82
2023/12/10 14:46:49;;;;;;;;;;;;;;;;;;5071084;28;19913;-81
2023/12/10 14:49:14;;;;;;;;;;;;;;;;;;5076969;28;19974;-81
2023/12/10 14:51:40;;;;;;;;;;;;;;;;;;5072575;28;19909;-82
2023/12/10 14:54:05;;;;;;;;;;;;;;;;;;5071693;28;19913;-81
2023/12/10 14:56:31;;;;;;;;;;;;;;;;;;5071165;28;20374;-81
2023/12/10 14:58:56;;;;;;;;;;;;;;;;;;5071952;28;19928;-81
2023/12/10 15:01:22;;;;;;;;;;;;;;;;;;5072967;28;19996;-82
2023/12/10 15:03:48;;;;;;;;;;;;;;;;;;5071043;28;20295;-81
2023/12/10 15:06:13;;;;;;;;;;;;;;;;;;5064099;28;19991;-82
2023/12/10 15:08:38;;;;;;;;;;;;;;;;;;5070557;28;19977;-82
2023/12/10 15:11:04;;;;;;;;;;;;;;;;;;5072421;28;20352;-82
2023/12/10 15:13:29;;;;;;;;;;;;;;;;;;5070958;28;20007;-82
2023/12/10 15:15:54;;;;;;;;;;;;;;;;;;5071356;28;19995;-82
2023/12/10 15:18:19;;;;;;;;;;;;;;;;;;5071894;28;19921;-81
2023/12/10 15:20:44;;;;;;;;;;;;;;;;;;5071834;28;19999;-84
2023/12/10 15:23:09;;;;;;;;;;;;;;;;;;5070871;28;19962;-83
2023/12/10 15:25:34;;;;;;;;;;;;;;;;;;5071484;28;19959;-82
2023/12/10 15:28:00;;;;;;;;;;;;;;;;;;5071948;28;19913;-82
2023/12/10 15:30:25;;;;;;;;;;;;;;;;;;5070422;28;19912;-82
2023/12/10 15:32:51;;;;;;;;;;;;;;;;;;5071020;28;20387;-83
2023/12/10 15:35:17;;;;;;;;;;;;;;;;;;5072348;28;19950;-82
2023/12/10 15:37:42;;;;;;;;;;;;;;;;;;5071279;28;19924;-83
2023/12/10 15:40:07;;;;;;;;;;;;;;;;;;5071448;28;19919;-83
2023/12/10 15:42:34;;;;;;;;;;;;;;;;;;5072156;28;19967;-82
2023/12/10 15:44:59;;;;;;;;;;;;;;;;;;5074325;28;19924;-82
2023/12/10 15:47:24;;;;;;;;;;;;;;;;;;5075278;28;19920;-82
2023/12/10 15:49:49;;;;;;;;;;;;;;;;;;5074852;28;20003;-81
2023/12/10 15:52:14;;;;;;;;;;;;;;;;;;5074431;28;20007;-82
2023/12/10 15:54:40;;;;;;;;;;;;;;;;;;5075148;28;19999;-82
2023/12/10 15:57:05;;;;;;;;;;;;;;;;;;5074554;28;19924;-82
2023/12/10 15:59:30;;;;;;;;;;;;;;;;;;5074816;28;19924;-81
2023/12/10 16:01:56;;;;;;;;;;;;;;;;;;5074625;28;19964;-82
2023/12/10 16:04:21;;;;;;;;;;;;;;;;;;5075278;28;19920;-82
2023/12/10 16:06:46;;;;;;;;;;;;;;;;;;5074414;28;19912;-82
2023/12/10 16:09:11;;;;;;;;;;;;;;;;;;5074651;28;19919;-82
2023/12/10 16:11:36;;;;;;;;;;;;;;;;;;5075140;28;19912;-82
2023/12/10 16:14:05;;;;;;;;;;;;;;;;;;5073888;28;19912;-82
2023/12/10 16:16:30;;;;;;;;;;;;;;;;;;5074986;28;19913;-82
2023/12/10 16:18:55;;;;;;;;;;;;;;;;;;5073795;28;19928;-82
2023/12/10 16:21:20;;;;;;;;;;;;;;;;;;5074634;28;19912;-82
2023/12/10 16:23:45;;;;;;;;;;;;;;;;;;5074601;28;19987;-82
2023/12/10 16:26:11;;;;;;;;;;;;;;;;;;5074064;28;20042;-83
2023/12/10 16:28:36;;;;;;;;;;;;;;;;;;5074982;28;19944;-83
2023/12/10 16:31:01;;;;;;;;;;;;;;;;;;5074424;28;20501;-83